Time;durP1;ratioP1;P1;durP2;ratioP2;P2;SDS_P1;SDS_P2;PMS_P1;PMS_P2;Temp;Humidity;BMP_temperature;BMP_pressure;BME280_temperature;BME280_humidity;BME280_pressure;Samples;Min_cycle;Max_cycle;Signal;HPM_P1;HPM_P2
2021/10/13 00:01:06;;;;;;;5.63;1.60;;;;;;;7.56;99.49;101230.91;5046606;28;20119;-65
2021/10/13 00:03:31;;;;;;;2.97;1.63;;;;;;;7.59;99.41;101239.09;5049637;28;20037;-65
2021/10/13 00:05:57;;;;;;;2.42;1.55;;;;;;;7.54;99.32;101230.44;5048681;28;20553;-64
2021/10/13 00:08:22;;;;;;;3.13;1.70;;;;;;;7.54;99.78;101225.06;5047802;28;20028;-65
2021/10/13 00:10:48;;;;;;;2.55;1.85;;;;;;;7.50;99.45;101230.28;5047835;28;20130;-64
2021/10/13 00:13:14;;;;;;;3.15;2.08;;;;;;;7.43;99.93;101224.66;5046957;28;20490;-65
2021/10/13 00:15:41;;;;;;;3.40;1.83;;;;;;;7.50;99.36;101229.50;5049178;28;20033;-64
2021/10/13 00:18:06;;;;;;;3.90;1.77;;;;;;;7.48;99.82;101227.16;5047534;28;20044;-64
2021/10/13 00:20:32;;;;;;;2.83;1.75;;;;;;;7.44;100.00;101236.94;5046210;28;20033;-64
2021/10/13 00:22:58;;;;;;;2.10;1.65;;;;;;;7.45;100.00;101235.03;5049400;28;20033;-65
2021/10/13 00:25:23;;;;;;;3.20;1.90;;;;;;;7.44;100.00;101236.13;5049386;28;20055;-65
2021/10/13 00:27:49;;;;;;;2.20;1.42;;;;;;;7.43;100.00;101231.91;5048746;28;20037;-65
2021/10/13 00:30:15;;;;;;;5.43;1.85;;;;;;;7.49;100.00;101239.41;5045126;28;20033;-64
2021/10/13 00:32:40;;;;;;;3.67;1.80;;;;;;;7.50;100.00;101234.84;5049303;28;20041;-64
2021/10/13 00:35:06;;;;;;;3.55;2.20;;;;;;;7.47;100.00;101247.00;5048480;28;20104;-64
2021/10/13 00:37:32;;;;;;;3.78;2.05;;;;;;;7.50;100.00;101242.91;5046675;28;20036;-64
2021/10/13 00:39:57;;;;;;;3.30;1.75;;;;;;;7.45;100.00;101243.06;5046848;28;20436;-64
2021/10/13 00:42:22;;;;;;;4.68;2.10;;;;;;;7.46;100.00;101247.31;5050041;28;20044;-64
2021/10/13 00:44:48;;;;;;;4.25;1.83;;;;;;;7.47;100.00;101244.31;5053339;28;20082;-65
2021/10/13 00:47:14;;;;;;;3.78;1.80;;;;;;;7.41;100.00;101244.81;5050401;28;20022;-64
2021/10/13 00:49:40;;;;;;;4.13;2.13;;;;;;;7.37;100.00;101247.34;5051562;28;20075;-64
2021/10/13 00:52:06;;;;;;;4.68;1.65;;;;;;;7.39;100.00;101247.03;5053049;28;20103;-64
2021/10/13 00:54:32;;;;;;;2.97;1.75;;;;;;;7.38;100.00;101248.91;5049906;28;20106;-63
2021/10/13 00:56:58;;;;;;;3.90;2.10;;;;;;;7.33;100.00;101235.69;5051564;28;20041;-64
2021/10/13 00:59:23;;;;;;;2.92;1.73;;;;;;;7.30;100.00;101247.81;5049402;28;20145;-64
2021/10/13 01:02:01;;;;;;;5.88;2.28;;;;;;;7.26;100.00;101248.75;5048865;28;20037;-64
2021/10/13 01:04:34;;;;;;;2.90;1.77;;;;;;;7.27;100.00;101242.31;5047016;28;20025;-64
2021/10/13 01:07:21;;;;;;;4.57;1.58;;;;;;;7.26;100.00;101244.22;5052898;28;20036;-64
2021/10/13 01:10:04;;;;;;;3.42;1.65;;;;;;;7.24;100.00;101241.06;5048574;28;20521;-64
2021/10/13 01:12:38;;;;;;;2.50;1.73;;;;;;;7.22;100.00;101235.22;5052346;28;20104;-64
2021/10/13 01:15:25;;;;;;;4.45;1.42;;;;;;;7.22;100.00;101243.25;5042896;28;20085;-63
2021/10/13 01:18:05;;;;;;;2.40;1.50;;;;;;;7.22;100.00;101242.47;5051665;28;20029;-64
2021/10/13 01:20:55;;;;;;;3.47;1.50;;;;;;;7.20;100.00;101247.38;5047684;28;20040;-64
2021/10/13 01:23:48;;;;;;;2.42;1.77;;;;;;;7.17;100.00;101251.47;5046942;28;20033;-64
2021/10/13 01:26:31;;;;;;;5.80;2.20;;;;;;;7.10;100.00;101248.47;5051925;28;20115;-64
2021/10/13 01:29:02;;;;;;;3.85;1.77;;;;;;;7.10;100.00;101253.81;5047326;28;20059;-64
2021/10/13 01:31:35;;;;;;;3.47;2.10;;;;;;;7.10;100.00;101261.84;5051911;28;20020;-64
2021/10/13 01:34:29;;;;;;;2.65;1.88;;;;;;;7.08;100.00;101261.38;5052198;28;20139;-64
2021/10/13 01:37:07;;;;;;;3.95;1.60;;;;;;;7.08;100.00;101261.38;5048889;28;20718;-64
2021/10/13 01:39:39;;;;;;;2.38;1.85;;;;;;;6.95;100.00;101250.88;5039879;28;20154;-64
2021/10/13 01:42:06;;;;;;;2.58;1.73;;;;;;;6.91;100.00;101248.00;5051222;28;20114;-63
2021/10/13 01:44:33;;;;;;;5.05;2.10;;;;;;;6.81;100.00;101244.88;5051966;28;20048;-64
2021/10/13 01:47:01;;;;;;;2.50;1.67;;;;;;;6.80;100.00;101249.44;5047822;28;20064;-64
2021/10/13 01:49:31;;;;;;;2.13;1.48;;;;;;;6.81;100.00;101247.56;5049327;28;20032;-64
2021/10/13 01:51:57;;;;;;;3.88;1.55;;;;;;;6.88;100.00;101250.53;5048495;28;20098;-64
2021/10/13 01:54:24;;;;;;;2.80;1.60;;;;;;;6.88;100.00;101256.69;5050593;28;20039;-64
2021/10/13 01:56:52;;;;;;;5.22;1.90;;;;;;;6.89;100.00;101249.44;5051182;28;20044;-64
2021/10/13 01:59:21;;;;;;;3.30;1.90;;;;;;;6.87;100.00;101244.38;5045740;28;20033;-64
2021/10/13 02:01:48;;;;;;;5.03;2.15;;;;;;;6.85;100.00;101259.97;5050860;28;20041;-64
2021/10/13 02:04:15;;;;;;;3.38;2.00;;;;;;;6.87;100.00;101257.00;5048317;28;20108;-64
2021/10/13 02:06:42;;;;;;;3.05;1.77;;;;;;;6.87;100.00;101260.44;5046249;28;20124;-64
2021/10/13 02:09:08;;;;;;;3.60;1.75;;;;;;;6.80;100.00;101265.50;5034953;28;20087;-63
2021/10/13 02:11:35;;;;;;;1.95;1.40;;;;;;;6.76;100.00;101258.38;5041046;28;20676;-63
2021/10/13 02:14:14;;;;;;;2.80;1.52;;;;;;;6.76;100.00;101271.78;5050125;28;20076;-64
2021/10/13 02:16:43;;;;;;;3.75;2.15;;;;;;;6.72;100.00;101268.94;5058326;28;20405;-64
2021/10/13 02:19:12;;;;;;;2.88;1.90;;;;;;;6.76;100.00;101271.78;5057522;28;20033;-64
2021/10/13 02:21:39;;;;;;;3.53;1.95;;;;;;;6.69;100.00;101274.94;5056502;28;20067;-63
2021/10/13 02:24:07;;;;;;;4.05;1.77;;;;;;;6.66;100.00;101278.22;5045433;28;20034;-64
2021/10/13 02:26:38;;;;;;;3.70;2.08;;;;;;;6.65;100.00;101279.31;5050780;28;20470;-64
2021/10/13 02:29:09;;;;;;;3.20;1.73;;;;;;;6.66;100.00;101277.44;5059094;28;20041;-64
2021/10/13 02:31:34;;;;;;;3.50;1.90;;;;;;;6.66;100.00;101280.88;5052332;28;20079;-64
2021/10/13 02:34:00;;;;;;;7.05;2.03;;;;;;;6.64;100.00;101283.09;5050916;28;20497;-64
2021/10/13 02:36:26;;;;;;;4.40;1.92;;;;;;;6.70;100.00;101287.19;5048079;28;20070;-64
2021/10/13 02:38:52;;;;;;;4.72;1.77;;;;;;;6.69;100.00;101291.00;5049013;28;20025;-64
2021/10/13 02:41:17;;;;;;;3.70;2.15;;;;;;;6.72;100.00;101294.91;5041583;28;20470;-64
2021/10/13 02:43:43;;;;;;;5.82;2.08;;;;;;;6.69;100.00;101290.19;5048323;28;20024;-64
2021/10/13 02:46:23;;;;;;;3.03;2.20;;;;;;;6.70;100.00;101291.75;5050667;28;20067;-64
2021/10/13 02:49:16;;;;;;;6.35;2.45;;;;;;;6.73;100.00;101288.47;5046592;28;20040;-64
2021/10/13 02:51:47;;;;;;;3.63;1.83;;;;;;;6.70;100.00;101289.88;5049084;28;20501;-65
2021/10/13 02:54:29;;;;;;;5.00;1.67;;;;;;;6.66;100.00;101291.59;5049646;28;20040;-65
2021/10/13 02:56:58;;;;;;;3.55;1.92;;;;;;;6.66;100.00;101294.28;5048173;28;20090;-65
2021/10/13 02:59:37;;;;;;;3.63;1.80;;;;;;;6.56;100.00;101291.13;5049033;28;20044;-64
2021/10/13 03:02:08;;;;;;;2.58;1.80;;;;;;;6.46;100.00;101297.56;5048193;28;20029;-64
2021/10/13 03:04:50;;;;;;;5.10;2.28;;;;;;;6.36;100.00;101293.28;5050368;28;20032;-64
2021/10/13 03:07:20;;;;;;;2.95;1.67;;;;;;;6.30;100.00;101293.72;5047236;28;20370;-64
2021/10/13 03:09:51;;;;;;;2.13;1.70;;;;;;;6.31;100.00;101298.75;5048648;28;20112;-64
2021/10/13 03:12:21;;;;;;;2.30;1.90;;;;;;;6.28;100.00;101296.72;5050511;28;20028;-64
2021/10/13 03:14:49;;;;;;;3.15;1.70;;;;;;;6.25;100.00;101291.19;5049543;28;20041;-64
2021/10/13 03:17:18;;;;;;;3.72;1.90;;;;;;;6.24;100.00;101289.59;5046862;28;20032;-64
2021/10/13 03:19:45;;;;;;;4.57;1.88;;;;;;;6.16;100.00;101295.69;5048119;28;20041;-64
2021/10/13 03:22:11;;;;;;;3.00;1.85;;;;;;;6.06;100.00;101295.97;5048973;28;20090;-63
2021/10/13 03:24:39;;;;;;;3.55;1.83;;;;;;;5.90;99.96;101289.47;5049804;28;20045;-64
2021/10/13 03:27:04;;;;;;;3.88;1.67;;;;;;;5.89;100.00;101303.91;5046953;28;20053;-64
2021/10/13 03:29:30;;;;;;;4.40;2.05;;;;;;;5.75;99.79;101295.94;5048893;28;20059;-63
2021/10/13 03:31:55;;;;;;;4.00;1.58;;;;;;;5.76;100.00;101299.41;5045520;28;20029;-63
2021/10/13 03:34:21;;;;;;;3.78;1.80;;;;;;;5.72;100.00;101304.59;5036902;28;20024;-64
2021/10/13 03:36:49;;;;;;;4.35;2.08;;;;;;;5.59;100.00;101299.31;5044107;28;20040;-64
2021/10/13 03:39:16;;;;;;;5.13;2.42;;;;;;;5.66;99.97;101307.69;5045069;28;20116;-64
2021/10/13 03:41:42;;;;;;;4.30;2.40;;;;;;;5.62;99.87;101314.72;5040322;28;20388;-64
2021/10/13 03:44:08;;;;;;;4.97;2.22;;;;;;;5.71;100.00;101311.00;5046899;28;20112;-64
2021/10/13 03:46:34;;;;;;;3.95;2.35;;;;;;;5.76;100.00;101308.22;5044063;28;20029;-64
2021/10/13 03:49:01;;;;;;;4.80;2.30;;;;;;;5.80;100.00;101317.22;5044709;28;20114;-65
2021/10/13 03:51:27;;;;;;;5.53;2.53;;;;;;;5.81;100.00;101317.97;5045731;28;20029;-64
2021/10/13 03:53:52;;;;;;;4.47;2.08;;;;;;;5.86;100.00;101318.69;5049683;28;20105;-64
2021/10/13 03:56:19;;;;;;;5.13;2.13;;;;;;;5.86;100.00;101323.25;5049917;28;20029;-65
2021/10/13 03:58:45;;;;;;;5.82;2.00;;;;;;;5.89;100.00;101325.28;5038849;28;20120;-66
2021/10/13 04:01:12;;;;;;;4.15;2.25;;;;;;;5.92;100.00;101322.78;5040635;28;20112;-65
2021/10/13 04:03:39;;;;;;;5.18;2.28;;;;;;;5.94;100.00;101322.50;5047226;28;20036;-65
2021/10/13 04:06:04;;;;;;;5.00;1.95;;;;;;;5.99;100.00;101333.84;5027577;28;20060;-65
2021/10/13 04:08:30;;;;;;;4.53;2.40;;;;;;;6.00;100.00;101327.41;5044734;28;20029;-66
2021/10/13 04:10:56;;;;;;;4.70;2.40;;;;;;;5.81;100.00;101326.00;5049336;28;20037;-65
2021/10/13 04:13:21;;;;;;;4.65;2.33;;;;;;;5.76;100.00;101331.47;5048122;28;20054;-66
2021/10/13 04:15:47;;;;;;;4.43;2.58;;;;;;;5.66;100.00;101331.72;5038335;28;20036;-65
2021/10/13 04:18:13;;;;;;;7.43;2.50;;;;;;;5.55;100.00;101333.06;5050453;28;20040;-65
2021/10/13 04:20:38;;;;;;;5.03;2.58;;;;;;;5.55;100.00;101338.41;5048577;28;20025;-61
2021/10/13 04:23:03;;;;;;;5.45;2.40;;;;;;;5.50;100.00;101333.97;5051809;28;20028;-65
2021/10/13 04:25:29;;;;;;;5.60;2.60;;;;;;;5.64;100.00;101331.25;5047994;28;20065;-64
2021/10/13 04:27:54;;;;;;;5.13;2.33;;;;;;;5.68;100.00;101335.69;5049845;28;20178;-65
2021/10/13 04:30:20;;;;;;;4.88;2.72;;;;;;;5.74;100.00;101328.31;5049734;28;20029;-65
2021/10/13 04:32:45;;;;;;;5.65;2.67;;;;;;;5.68;100.00;101324.19;5049153;28;20199;-65
2021/10/13 04:35:12;;;;;;;4.63;2.78;;;;;;;5.72;100.00;101331.31;5051434;28;20033;-65
2021/10/13 04:37:38;;;;;;;5.18;2.30;;;;;;;5.75;100.00;101330.69;5050575;28;20037;-64
2021/10/13 04:40:05;;;;;;;5.07;2.20;;;;;;;5.77;100.00;101328.50;5050567;28;20399;-66
2021/10/13 04:42:31;;;;;;;5.28;2.47;;;;;;;5.79;100.00;101322.88;5047958;28;20526;-66
2021/10/13 04:44:57;;;;;;;4.45;2.45;;;;;;;5.81;100.00;101328.66;5051328;28;20207;-65
2021/10/13 04:47:22;;;;;;;5.72;2.55;;;;;;;5.79;100.00;101322.88;5051425;28;20040;-65
2021/10/13 04:49:48;;;;;;;5.78;2.60;;;;;;;5.78;100.00;101324.75;5047544;28;20040;-65
2021/10/13 04:52:14;;;;;;;5.10;2.47;;;;;;;5.86;100.00;101329.38;5049364;28;20620;-65
2021/10/13 04:54:39;;;;;;;5.55;2.63;;;;;;;5.89;100.00;101325.28;5050291;28;20036;-65
2021/10/13 04:57:05;;;;;;;7.30;3.53;;;;;;;5.89;100.00;101322.63;5050242;28;20121;-65
2021/10/13 04:59:30;;;;;;;5.50;2.80;;;;;;;5.91;100.00;101325.78;5044557;28;20028;-65
2021/10/13 05:01:56;;;;;;;5.60;2.58;;;;;;;5.91;100.00;101317.75;5044189;28;20036;-65
2021/10/13 05:04:21;;;;;;;4.65;2.72;;;;;;;6.00;100.00;101331.97;5047316;28;20043;-63
2021/10/13 05:06:47;;;;;;;5.82;2.97;;;;;;;6.07;100.00;101330.44;5042429;28;20041;-64
2021/10/13 05:09:12;;;;;;;4.20;2.75;;;;;;;6.14;100.00;101329.97;5049071;28;20040;-64
2021/10/13 05:11:38;;;;;;;6.63;3.28;;;;;;;6.18;100.00;101329.06;5052151;28;20485;-65
2021/10/13 05:14:04;;;;;;;6.13;3.13;;;;;;;6.21;100.00;101330.34;5046741;28;20037;-64
2021/10/13 05:16:29;;;;;;;6.55;3.03;;;;;;;6.25;100.00;101329.41;5047725;28;20044;-64
2021/10/13 05:18:55;;;;;;;6.30;3.30;;;;;;;6.31;100.00;101324.69;5047993;28;20044;-66
2021/10/13 05:21:21;;;;;;;6.28;3.58;;;;;;;6.33;100.00;101328.66;5050562;28;20082;-65
2021/10/13 05:23:46;;;;;;;6.68;3.03;;;;;;;6.34;100.00;101324.88;5049967;28;20394;-65
2021/10/13 05:26:12;;;;;;;8.25;3.40;;;;;;;6.43;100.00;101326.81;5050806;28;20039;-63
2021/10/13 05:28:37;;;;;;;6.53;3.50;;;;;;;6.41;100.00;101335.13;5048745;28;20548;-65
2021/10/13 05:31:03;;;;;;;7.05;3.38;;;;;;;6.43;100.00;101326.81;5049762;28;20112;-66
2021/10/13 05:33:28;;;;;;;6.55;3.42;;;;;;;6.42;100.00;101333.25;5051363;28;20024;-65
2021/10/13 05:35:54;;;;;;;7.45;3.15;;;;;;;6.37;100.00;101332.28;5051132;28;20036;-65
2021/10/13 05:38:19;;;;;;;8.30;3.35;;;;;;;6.44;100.00;101347.09;5049706;28;20397;-66
2021/10/13 05:40:45;;;;;;;7.32;3.38;;;;;;;6.42;100.00;101344.75;5050608;28;20032;-65
2021/10/13 05:43:10;;;;;;;5.30;2.92;;;;;;;6.46;100.00;101351.06;5048582;28;20401;-65
2021/10/13 05:45:36;;;;;;;5.55;3.08;;;;;;;6.48;100.00;101353.41;5047272;28;20048;-66
2021/10/13 05:48:07;;;;;;;6.35;2.97;;;;;;;6.46;100.00;101364.41;5048614;28;20047;-65
2021/10/13 05:50:33;;;;;;;6.82;3.50;;;;;;;6.47;100.00;101368.66;5049278;28;20037;-66
2021/10/13 05:52:58;;;;;;;7.57;2.70;;;;;;;6.48;100.00;101358.75;5045059;28;20103;-65
2021/10/13 05:55:23;;;;;;;6.95;2.97;;;;;;;6.51;100.00;101360.81;5049283;28;20033;-65
2021/10/13 05:57:50;;;;;;;6.68;3.17;;;;;;;6.47;100.00;101366.00;5041643;28;20036;-63
2021/10/13 06:00:16;;;;;;;7.65;3.28;;;;;;;6.47;100.00;101368.66;5047610;28;20037;-64
2021/10/13 06:02:41;;;;;;;7.70;3.95;;;;;;;6.37;100.00;101363.59;5050095;28;20035;-64
2021/10/13 06:05:07;;;;;;;7.93;3.45;;;;;;;6.38;100.00;101362.50;5049963;28;20140;-65
2021/10/13 06:07:33;;;;;;;7.68;3.58;;;;;;;6.37;100.00;101374.28;5047290;28;20547;-65
2021/10/13 06:09:58;;;;;;;6.82;3.60;;;;;;;6.44;100.00;101363.94;5047559;28;20074;-65
2021/10/13 06:12:24;;;;;;;7.53;3.85;;;;;;;6.28;100.00;101376.13;5049163;28;20043;-64
2021/10/13 06:14:49;;;;;;;11.95;3.97;;;;;;;6.21;100.00;101371.22;5049919;28;20029;-65
2021/10/13 06:17:15;;;;;;;8.38;4.20;;;;;;;6.22;100.00;101366.66;5049695;28;20481;-65
2021/10/13 06:19:41;;;;;;;9.70;3.38;;;;;;;6.25;100.00;101382.13;5045451;28;20500;-63
2021/10/13 06:22:06;;;;;;;6.78;3.13;;;;;;;6.27;100.00;101377.25;5043639;28;20033;-64
2021/10/13 06:24:32;;;;;;;5.78;2.97;;;;;;;6.31;100.00;101381.66;5035796;28;20037;-65
2021/10/13 06:26:57;;;;;;;6.05;2.53;;;;;;;6.32;100.00;101388.59;5041363;28;20495;-66
2021/10/13 06:29:23;;;;;;;6.82;2.65;;;;;;;6.35;100.00;101384.50;5035281;28;20040;-62
2021/10/13 06:31:48;;;;;;;5.82;2.80;;;;;;;6.39;100.00;101391.59;5043693;28;20037;-64
2021/10/13 06:34:15;;;;;;;6.38;3.33;;;;;;;6.46;100.00;101401.88;5036974;28;20179;-65
2021/10/13 06:36:41;;;;;;;5.32;2.88;;;;;;;6.40;100.00;101395.06;5043135;28;20044;-64
2021/10/13 06:39:07;;;;;;;8.15;3.80;;;;;;;6.45;100.00;101402.97;5046784;28;20033;-65
2021/10/13 06:41:32;;;;;;;4.80;3.10;;;;;;;6.47;100.00;101400.75;5043872;28;20040;-65
2021/10/13 06:43:58;;;;;;;6.45;3.63;;;;;;;6.47;100.00;101405.31;5050660;28;20082;-66
2021/10/13 06:46:23;;;;;;;4.28;2.92;;;;;;;6.49;100.00;101406.59;5050903;28;20045;-66
2021/10/13 06:48:48;;;;;;;6.18;3.22;;;;;;;6.49;100.00;101411.16;5049918;28;20058;-66
2021/10/13 06:51:14;;;;;;;5.65;3.00;;;;;;;6.63;100.00;101414.53;5050049;28;20456;-66
2021/10/13 06:53:42;;;;;;;6.32;3.10;;;;;;;6.64;100.00;101408.84;5046579;28;20028;-65
2021/10/13 06:56:09;;;;;;;6.55;2.97;;;;;;;6.73;100.00;101414.25;5050530;28;20453;-65
2021/10/13 06:58:34;;;;;;;7.60;3.13;;;;;;;6.72;100.00;101426.84;5048920;28;20512;-66
2021/10/13 07:01:00;;;;;;;5.15;2.72;;;;;;;6.80;100.00;101422.59;5048523;28;20037;-65
2021/10/13 07:03:25;;;;;;;8.23;2.88;;;;;;;6.78;100.00;101438.19;5047554;28;20078;-65
2021/10/13 07:05:50;;;;;;;8.30;3.72;;;;;;;6.81;100.00;101432.22;5050227;28;20450;-66
2021/10/13 07:08:16;;;;;;;7.97;3.38;;;;;;;6.85;100.00;101438.53;5045509;28;20037;-66
2021/10/13 07:10:42;;;;;;;8.70;3.10;;;;;;;6.89;100.00;101439.50;5048933;28;20095;-65
2021/10/13 07:13:08;;;;;;;8.23;3.33;;;;;;;6.97;100.00;101436.84;5050802;28;20047;-66
2021/10/13 07:15:33;;;;;;;6.75;3.47;;;;;;;7.00;100.00;101438.91;5048884;28;20032;-66
2021/10/13 07:17:59;;;;;;;5.38;3.05;;;;;;;7.03;100.00;101434.78;5046111;28;20094;-63
2021/10/13 07:20:25;;;;;;;7.85;3.75;;;;;;;7.08;100.00;101432.00;5049613;28;20044;-66
2021/10/13 07:22:51;;;;;;;8.27;4.13;;;;;;;7.09;100.00;101434.34;5035507;28;20483;-66
2021/10/13 07:25:21;;;;;;;6.65;3.38;;;;;;;7.29;100.00;101431.09;5044277;28;20095;-64
2021/10/13 07:27:46;;;;;;;9.90;3.83;;;;;;;7.40;100.00;101433.44;5048390;28;20029;-65
2021/10/13 07:30:16;;;;;;;9.20;3.70;;;;;;;7.46;100.00;101437.56;5047897;28;20409;-66
2021/10/13 07:32:42;;;;;;;6.85;3.40;;;;;;;7.58;100.00;101435.84;5043714;28;20037;-66
2021/10/13 07:35:07;;;;;;;8.35;3.55;;;;;;;7.67;100.00;101441.19;5048113;28;20039;-65
2021/10/13 07:37:33;;;;;;;10.23;3.72;;;;;;;7.77;100.00;101448.91;5048511;28;20044;-62
2021/10/13 07:40:01;;;;;;;6.78;3.60;;;;;;;7.93;100.00;101444.66;5044350;28;20029;-64
2021/10/13 07:42:26;;;;;;;8.55;4.03;;;;;;;7.94;100.00;101446.22;5047792;28;20444;-64
2021/10/13 07:44:52;;;;;;;9.57;3.75;;;;;;;8.01;100.00;101441.94;5049226;28;20112;-64
2021/10/13 07:47:17;;;;;;;9.15;4.30;;;;;;;8.16;100.00;101452.22;5048500;28;20072;-65
2021/10/13 07:49:42;;;;;;;7.05;3.70;;;;;;;8.49;100.00;101452.47;5045179;28;20126;-65
2021/10/13 07:52:08;;;;;;;7.07;3.97;;;;;;;8.63;100.00;101460.31;5048584;28;20502;-65
2021/10/13 07:54:33;;;;;;;8.93;4.22;;;;;;;8.76;100.00;101459.31;5053120;28;20512;-65
2021/10/13 07:56:59;;;;;;;7.22;3.55;;;;;;;8.88;100.00;101465.56;5049878;28;20029;-66
2021/10/13 07:59:24;;;;;;;6.05;3.03;;;;;;;9.02;100.00;101474.19;5052342;28;20036;-66
2021/10/13 08:01:50;;;;;;;7.05;3.38;;;;;;;9.05;100.00;101464.72;5049953;28;20060;-65
2021/10/13 08:04:16;;;;;;;8.25;3.25;;;;;;;9.17;100.00;101455.97;5052214;28;20040;-65
2021/10/13 08:06:42;;;;;;;7.05;3.72;;;;;;;9.29;100.00;101464.88;5053674;28;20397;-65
2021/10/13 08:09:07;;;;;;;8.77;3.50;;;;;;;9.37;100.00;101471.34;5049118;28;20477;-66
2021/10/13 08:11:33;;;;;;;7.85;3.15;;;;;;;9.43;100.00;101470.00;5051278;28;20119;-66
2021/10/13 08:13:59;;;;;;;5.43;3.25;;;;;;;9.61;100.00;101468.78;5050337;28;20037;-64
2021/10/13 08:16:24;;;;;;;7.20;3.42;;;;;;;9.74;100.00;101470.41;5050137;28;20115;-66
2021/10/13 08:18:50;;;;;;;7.60;3.05;;;;;;;9.86;100.00;101467.78;5048991;28;20091;-65
2021/10/13 08:21:16;;;;;;;5.22;2.90;;;;;;;9.94;100.00;101475.00;5050022;28;20052;-64
2021/10/13 08:23:41;;;;;;;10.00;3.00;;;;;;;9.97;100.00;101474.34;5053731;28;20199;-66
2021/10/13 08:26:07;;;;;;;5.10;2.72;;;;;;;10.06;100.00;101464.31;5053741;28;20099;-66
2021/10/13 08:28:32;;;;;;;5.15;2.63;;;;;;;10.17;100.00;101475.47;5046023;28;20432;-64
2021/10/13 08:30:58;;;;;;;7.25;2.72;;;;;;;10.29;100.00;101475.50;5039679;28;20029;-66
2021/10/13 08:33:23;;;;;;;4.88;2.42;;;;;;;10.45;100.00;101471.84;5050729;28;20496;-65
2021/10/13 08:35:49;;;;;;;5.28;2.85;;;;;;;10.66;100.00;101477.97;5047759;28;20030;-62
2021/10/13 08:38:15;;;;;;;5.63;2.50;;;;;;;10.74;100.00;101484.38;5050492;28;20532;-65
2021/10/13 08:40:42;;;;;;;3.45;1.98;;;;;;;10.71;100.00;101468.84;5052714;28;20037;-64
2021/10/13 08:43:08;;;;;;;3.38;2.15;;;;;;;10.69;100.00;101479.97;5053075;28;20029;-65
2021/10/13 08:45:36;;;;;;;3.25;2.15;;;;;;;10.62;100.00;101482.44;5051639;28;20090;-65
2021/10/13 08:48:04;;;;;;;3.70;2.00;;;;;;;10.60;100.00;101486.59;5049028;28;20068;-65
2021/10/13 08:50:31;;;;;;;3.88;2.08;;;;;;;10.69;100.00;101477.28;5048775;28;20059;-65
2021/10/13 08:53:11;;;;;;;2.95;1.73;;;;;;;10.88;100.00;101485.59;5051142;28;20490;-65
2021/10/13 08:55:39;;;;;;;1.92;1.48;;;;;;;11.13;100.00;101491.78;5050672;28;20033;-65
2021/10/13 08:58:14;;;;;;;3.33;1.90;;;;;;;11.38;100.00;101496.03;5050119;28;20035;-65
2021/10/13 09:00:42;;;;;;;1.67;1.42;;;;;;;11.74;100.00;101495.22;5042884;28;20122;-62
2021/10/13 09:03:28;;;;;;;2.08;1.60;;;;;;;12.04;100.00;101499.16;5045660;28;20032;-65
2021/10/13 09:05:53;;;;;;;4.07;1.40;;;;;;;12.25;100.00;101493.59;5032237;28;20043;-64
2021/10/13 09:08:19;;;;;;;2.30;1.30;;;;;;;12.33;100.00;101493.41;5044561;28;20119;-66
2021/10/13 09:10:44;;;;;;;1.92;1.27;;;;;;;12.27;100.00;101500.19;5053741;28;20044;-65
2021/10/13 09:13:16;;;;;;;2.20;1.30;;;;;;;12.24;100.00;101492.00;5048301;28;20029;-64
2021/10/13 09:15:48;;;;;;;2.50;1.20;;;;;;;12.34;100.00;101491.50;5051068;28;20037;-65
2021/10/13 09:18:14;;;;;;;4.15;1.75;;;;;;;12.27;100.00;101500.19;5050093;28;20037;-66
2021/10/13 09:20:42;;;;;;;2.55;1.30;;;;;;;12.19;100.00;101494.97;5048988;28;20037;-64
2021/10/13 09:23:13;;;;;;;2.55;1.27;;;;;;;12.12;100.00;101486.66;5061724;28;20039;-65
2021/10/13 09:25:39;;;;;;;1.17;1.00;;;;;;;12.10;100.00;101497.03;5049842;28;20124;-66
2021/10/13 09:28:05;;;;;;;2.97;1.38;;;;;;;12.18;100.00;101496.88;5051704;28;20515;-65
2021/10/13 09:30:37;;;;;;;3.47;1.38;;;;;;;12.21;100.00;101488.09;5049608;28;20037;-65
2021/10/13 09:33:15;;;;;;;2.78;1.23;;;;;;;12.32;100.00;101494.56;5051497;28;20083;-64
2021/10/13 09:35:44;;;;;;;2.33;1.15;;;;;;;12.38;100.00;101493.19;5052253;28;20032;-64
2021/10/13 09:38:13;;;;;;;2.65;1.52;;;;;;;12.40;100.00;101493.63;5049345;28;20032;-65
2021/10/13 09:40:39;;;;;;;4.57;1.52;;;;;;;12.43;100.00;101498.31;5045692;28;20075;-66
2021/10/13 09:43:04;;;;;;;2.38;1.27;;;;;;;12.42;100.00;101499.47;5051916;28;20029;-66
2021/10/13 09:45:34;;;;;;;2.67;1.50;;;;;;;12.43;100.00;101489.41;5049453;28;20048;-64
2021/10/13 09:48:04;;;;;;;4.50;1.48;;;;;;;12.54;100.00;101487.81;5048962;28;20060;-64
2021/10/13 09:50:44;;;;;;;3.53;1.17;;;;;;;12.49;100.00;101494.25;5050700;28;20074;-65
2021/10/13 09:53:26;;;;;;;2.67;1.33;;;;;;;12.55;100.00;101489.34;5046238;28;20039;-65
2021/10/13 09:55:51;;;;;;;3.80;1.10;;;;;;;12.51;100.00;101491.19;5050717;28;20044;-64
2021/10/13 09:58:35;;;;;;;4.32;1.23;;;;;;;12.53;100.00;101487.00;5046124;28;20025;-66
2021/10/13 10:01:07;;;;;;;1.58;1.05;;;;;;;12.64;100.00;101484.56;5048793;28;20064;-65
2021/10/13 10:03:35;;;;;;;4.07;1.33;;;;;;;12.65;100.00;101484.25;5048639;28;20025;-64
2021/10/13 10:06:02;;;;;;;1.88;1.17;;;;;;;12.73;100.00;101482.50;5050128;28;20040;-63
2021/10/13 10:08:27;;;;;;;1.10;1.00;;;;;;;12.87;100.00;101488.25;5052164;28;20043;-66
2021/10/13 10:11:06;;;;;;;3.33;1.20;;;;;;;12.89;100.00;101487.91;5045276;28;20127;-66
2021/10/13 10:13:42;;;;;;;2.58;1.08;;;;;;;12.94;100.00;101485.72;5051357;28;20497;-66
2021/10/13 10:16:11;;;;;;;2.17;0.85;;;;;;;12.99;100.00;101498.19;5050788;28;20036;-66
2021/10/13 10:18:39;;;;;;;1.10;0.90;;;;;;;12.99;100.00;101493.56;5045681;28;20056;-65
2021/10/13 10:21:13;;;;;;;1.83;0.88;;;;;;;13.02;100.00;101500.19;5050882;28;20036;-65
2021/10/13 10:23:40;;;;;;;2.05;0.88;;;;;;;13.03;100.00;101507.16;5050057;28;20118;-65
2021/10/13 10:26:24;;;;;;;3.22;1.00;;;;;;;13.03;100.00;101499.88;5046963;28;20041;-66
2021/10/13 10:28:55;;;;;;;3.53;1.15;;;;;;;13.16;98.81;101495.91;5041407;28;20033;-65
2021/10/13 10:31:27;;;;;;;;;;;;;;;13.10;99.08;101493.84;5045210;28;20108;-65
2021/10/13 10:34:14;;;;;;;1.60;0.93;;;;;;;13.20;99.06;101502.19;5047893;28;19917;-66
2021/10/13 10:36:40;;;;;;;2.88;0.90;;;;;;;13.38;98.63;101502.59;5055049;28;20036;-66
2021/10/13 10:39:11;;;;;;;1.92;0.80;;;;;;;13.46;98.66;101493.53;5049799;28;20785;-65
2021/10/13 10:41:47;;;;;;;2.65;0.95;;;;;;;13.51;98.53;101512.97;5052050;28;20036;-65
2021/10/13 10:44:44;;;;;;;1.25;0.82;;;;;;;13.56;97.75;101514.63;5051572;28;20478;-66
2021/10/13 10:47:14;;;;;;;1.35;1.00;;;;;;;13.61;97.70;101508.94;5052332;28;20037;-63
2021/10/13 10:49:46;;;;;;;3.80;1.25;;;;;;;13.71;97.66;101507.59;5044787;28;20501;-65
2021/10/13 10:52:22;;;;;;;3.75;0.93;;;;;;;13.76;97.39;101508.13;5051529;28;20041;-66
2021/10/13 10:54:55;;;;;;;2.72;1.05;;;;;;;13.67;96.97;101504.81;5050268;28;20035;-65
2021/10/13 10:57:33;;;;;;;4.53;1.65;;;;;;;13.72;95.69;101506.47;5047228;28;20036;-65
2021/10/13 10:59:59;;;;;;;3.53;1.05;;;;;;;13.69;95.47;101505.22;5050922;28;20029;-66
2021/10/13 11:02:25;;;;;;;2.58;0.90;;;;;;;13.63;95.07;101514.78;5052551;28;20521;-65
2021/10/13 11:05:09;;;;;;;2.38;1.10;;;;;;;13.61;95.22;101511.63;5050432;28;20185;-66
2021/10/13 11:07:36;;;;;;;1.48;1.10;;;;;;;13.65;95.15;101517.13;5051267;28;20036;-65
2021/10/13 11:10:07;;;;;;;5.07;0.80;;;;;;;13.66;94.80;101507.88;5049699;28;20485;-66
2021/10/13 11:12:56;;;;;;;3.88;1.10;;;;;;;13.64;94.70;101515.56;5050564;28;20175;-64
2021/10/13 11:15:24;;;;;;;3.08;1.23;;;;;;;13.71;94.53;101515.72;5051455;28;20028;-66
2021/10/13 11:17:51;;;;;;;1.10;0.80;;;;;;;13.72;94.50;101520.78;5047788;28;20033;-66
2021/10/13 11:20:22;;;;;;;3.42;1.08;;;;;;;13.71;94.82;101521.13;5046210;28;20064;-65
2021/10/13 11:22:56;;;;;;;2.00;1.15;;;;;;;13.78;94.12;101522.06;5049480;28;20537;-66
2021/10/13 11:25:23;;;;;;;3.40;1.75;;;;;;;13.84;94.26;101517.16;5051387;28;20063;-66
2021/10/13 11:28:16;;;;;;;1.35;0.90;;;;;;;13.98;94.45;101523.66;5049048;28;20052;-64
2021/10/13 11:30:48;;;;;;;3.80;1.23;;;;;;;14.08;93.78;101519.59;5046026;28;20024;-66